Athol, ID (83801)

11:21 PM PST on January 23, 2017 (GMT -0800)
North Idaho Prairie | | Change Station

Elev 2477 ft 47.94 °N, 116.74 °W | Updated 4 seconds ago

Overcast
Overcast
29.3 °F
Feels Like 29 °F
N
2.3
Wind Variable Wind from NNE
Gusts 2.3 mph

Today
High -- | Low -- °F
--% Chance of Precip.
Yesterday
High -- | Low -- °F
Precip. -- in
Pressure 29.98 in
Visibility 8.0 miles
Clouds Overcast 500 ft
Windchill 29 °F
Dew Point 29 °F
Humidity 99%
Rainfall 0.09 in
Snow Depth Not available.
7:24 AM 4:33 PM
Waning Crescent, 13% visible
METAR KCOE 240656Z AUTO 28007KT 8SM OVC005 M02/M02 A2986 RMK AO2 SLP151 T10171017 FZRANO
Pressure 29.98 in
Visibility 8.0 miles
Clouds Overcast 500 ft
Windchill 29 °F
Dew Point 29 °F
Humidity 99%
Rainfall 0.09 in
Snow Depth Not available.
7:24 AM 4:33 PM
Waning Crescent, 13% visible
METAR KCOE 240656Z AUTO 28007KT 8SM OVC005 M02/M02 A2986 RMK AO2 SLP151 T10171017 FZRANO

Get Your Daily Forecast Email!

Thanks for signing up!

Be on the lookout for a verification email in your inbox.

You'll start receiving the daily forecast at 8 AM.

×

10-Day Weather Forecast

Almanac

Astronomy

Jan. 23, 2017 Rise Set
Actual Time
Civil Twilight
Nautical Twilight
Astronomical Twilight
Moon
Length of Visible Light
Length of Day
Tomorrow will be .
, % of the Moon is Illuminated

Today's Extremes

State Highs State Lows

Community

WunderPhotos

Upload Photos

1,962,540 photos uploaded!

WunderBlog® & News

Nearby

Air Quality

  Air Quality AQ Index Pollutant
Not available.

Snow Depth

Station Depth Elevation

Earthquake Activity

City Distance Mag. Time & Date
Minimum magnitude displayed is 2.5.

Coastal Water Temperatures

Place Temperature

Stations

Nearby Weather Stations

Station Location Temp. Windchill Dew Point Humidity Wind Precip. Elev Updated Type
                   

Watches & Warnings

There are currently no watches in effect.